sensor_id;sensor_type;location;lat;lon;timestamp;P1;durP1;ratioP1;P2;durP2;ratioP2
65145;SDS011;51730;56.950;24.126;2022-11-18T00:01:42;1.48;;;1.10;;
65145;SDS011;51730;56.950;24.126;2022-11-18T00:04:09;2.47;;;1.30;;
65145;SDS011;51730;56.950;24.126;2022-11-18T00:06:36;1.60;;;1.20;;
65145;SDS011;51730;56.950;24.126;2022-11-18T00:09:03;2.78;;;1.40;;
65145;SDS011;51730;56.950;24.126;2022-11-18T00:11:30;2.83;;;1.20;;
65145;SDS011;51730;56.950;24.126;2022-11-18T00:14:17;2.25;;;1.00;;
65145;SDS011;51730;56.950;24.126;2022-11-18T00:19:14;1.50;;;0.90;;
65145;SDS011;51730;56.950;24.126;2022-11-18T00:21:41;1.05;;;0.93;;
65145;SDS011;51730;56.950;24.126;2022-11-18T00:24:09;0.90;;;0.80;;
65145;SDS011;51730;56.950;24.126;2022-11-18T00:26:36;1.38;;;0.88;;
65145;SDS011;51730;56.950;24.126;2022-11-18T00:29:03;1.65;;;1.10;;
65145;SDS011;51730;56.950;24.126;2022-11-18T00:31:30;2.13;;;1.00;;
65145;SDS011;51730;56.950;24.126;2022-11-18T00:33:57;0.95;;;0.80;;
65145;SDS011;51730;56.950;24.126;2022-11-18T00:36:23;1.70;;;0.90;;
65145;SDS011;51730;56.950;24.126;2022-11-18T00:38:50;1.25;;;1.00;;
65145;SDS011;51730;56.950;24.126;2022-11-18T00:41:17;1.08;;;0.90;;
65145;SDS011;51730;56.950;24.126;2022-11-18T00:43:44;1.05;;;0.80;;
65145;SDS011;51730;56.950;24.126;2022-11-18T00:46:11;0.82;;;0.80;;
65145;SDS011;51730;56.950;24.126;2022-11-18T00:48:39;1.25;;;0.80;;
65145;SDS011;51730;56.950;24.126;2022-11-18T00:51:12;1.20;;;0.73;;
65145;SDS011;51730;56.950;24.126;2022-11-18T00:53:40;0.77;;;0.77;;
65145;SDS011;51730;56.950;24.126;2022-11-18T00:56:08;1.20;;;0.75;;
65145;SDS011;51730;56.950;24.126;2022-11-18T00:58:35;1.05;;;0.80;;
65145;SDS011;51730;56.950;24.126;2022-11-18T01:01:02;1.20;;;0.90;;
65145;SDS011;51730;56.950;24.126;2022-11-18T01:03:30;1.88;;;0.98;;
65145;SDS011;51730;56.950;24.126;2022-11-18T01:05:57;1.42;;;1.00;;
65145;SDS011;51730;56.950;24.126;2022-11-18T01:08:24;5.93;;;0.80;;
65145;SDS011;51730;56.950;24.126;2022-11-18T01:10:51;1.02;;;0.90;;
65145;SDS011;51730;56.950;24.126;2022-11-18T01:13:19;1.83;;;1.13;;
65145;SDS011;51730;56.950;24.126;2022-11-18T01:15:53;0.85;;;0.50;;
65145;SDS011;51730;56.950;24.126;2022-11-18T01:18:23;1.20;;;0.80;;
65145;SDS011;51730;56.950;24.126;2022-11-18T01:20:51;2.15;;;0.75;;
65145;SDS011;51730;56.950;24.126;2022-11-18T01:23:19;1.40;;;0.60;;
65145;SDS011;51730;56.950;24.126;2022-11-18T01:25:48;0.47;;;0.47;;
65145;SDS011;51730;56.950;24.126;2022-11-18T01:28:15;1.00;;;0.80;;
65145;SDS011;51730;56.950;24.126;2022-11-18T01:30:49;0.60;;;0.60;;
65145;SDS011;51730;56.950;24.126;2022-11-18T01:33:16;1.48;;;0.63;;
65145;SDS011;51730;56.950;24.126;2022-11-18T01:35:43;0.82;;;0.73;;
65145;SDS011;51730;56.950;24.126;2022-11-18T01:38:11;1.25;;;1.08;;
65145;SDS011;51730;56.950;24.126;2022-11-18T01:40:39;3.25;;;1.90;;
65145;SDS011;51730;56.950;24.126;2022-11-18T01:43:13;1.55;;;1.00;;
65145;SDS011;51730;56.950;24.126;2022-11-18T01:45:42;1.10;;;1.00;;
65145;SDS011;51730;56.950;24.126;2022-11-18T01:50:48;1.27;;;0.90;;
65145;SDS011;51730;56.950;24.126;2022-11-18T01:53:21;1.80;;;1.00;;
65145;SDS011;51730;56.950;24.126;2022-11-18T01:55:53;1.40;;;1.02;;
65145;SDS011;51730;56.950;24.126;2022-11-18T01:58:27;1.23;;;1.08;;
65145;SDS011;51730;56.950;24.126;2022-11-18T02:01:03;1.20;;;1.10;;
65145;SDS011;51730;56.950;24.126;2022-11-18T02:03:32;4.28;;;1.20;;
65145;SDS011;51730;56.950;24.126;2022-11-18T02:05:59;2.30;;;1.08;;
65145;SDS011;51730;56.950;24.126;2022-11-18T02:08:29;1.30;;;0.98;;
65145;SDS011;51730;56.950;24.126;2022-11-18T02:10:57;1.58;;;0.82;;
65145;SDS011;51730;56.950;24.126;2022-11-18T02:13:24;0.98;;;0.80;;
65145;SDS011;51730;56.950;24.126;2022-11-18T02:21:39;2.17;;;1.00;;
65145;SDS011;51730;56.950;24.126;2022-11-18T02:24:39;1.35;;;0.88;;
65145;SDS011;51730;56.950;24.126;2022-11-18T02:27:16;0.50;;;0.50;;
65145;SDS011;51730;56.950;24.126;2022-11-18T02:30:04;0.60;;;0.60;;
65145;SDS011;51730;56.950;24.126;2022-11-18T02:32:44;3.35;;;0.80;;
65145;SDS011;51730;56.950;24.126;2022-11-18T02:40:52;0.70;;;0.70;;
65145;SDS011;51730;56.950;24.126;2022-11-18T02:43:25;0.95;;;0.80;;
65145;SDS011;51730;56.950;24.126;2022-11-18T02:45:57;0.88;;;0.60;;
65145;SDS011;51730;56.950;24.126;2022-11-18T02:50:56;0.70;;;0.70;;
65145;SDS011;51730;56.950;24.126;2022-11-18T02:53:27;1.27;;;0.70;;
65145;SDS011;51730;56.950;24.126;2022-11-18T02:55:57;1.13;;;0.70;;
65145;SDS011;51730;56.950;24.126;2022-11-18T02:58:26;1.42;;;1.00;;
65145;SDS011;51730;56.950;24.126;2022-11-18T03:00:53;0.60;;;0.60;;
65145;SDS011;51730;56.950;24.126;2022-11-18T03:08:24;0.60;;;0.50;;
65145;SDS011;51730;56.950;24.126;2022-11-18T03:11:02;1.17;;;0.77;;
65145;SDS011;51730;56.950;24.126;2022-11-18T03:13:40;0.70;;;0.70;;
65145;SDS011;51730;56.950;24.126;2022-11-18T03:19:19;0.65;;;0.63;;
65145;SDS011;51730;56.950;24.126;2022-11-18T03:22:01;0.60;;;0.60;;
65145;SDS011;51730;56.950;24.126;2022-11-18T03:24:38;1.75;;;0.63;;
65145;SDS011;51730;56.950;24.126;2022-11-18T03:27:18;0.45;;;0.45;;
65145;SDS011;51730;56.950;24.126;2022-11-18T03:29:53;1.55;;;1.13;;
65145;SDS011;51730;56.950;24.126;2022-11-18T03:32:30;0.60;;;0.60;;
65145;SDS011;51730;56.950;24.126;2022-11-18T03:37:48;1.10;;;0.70;;
65145;SDS011;51730;56.950;24.126;2022-11-18T03:40:23;2.35;;;0.90;;
65145;SDS011;51730;56.950;24.126;2022-11-18T03:43:17;1.05;;;0.73;;
65145;SDS011;51730;56.950;24.126;2022-11-18T03:45:46;1.50;;;0.80;;
65145;SDS011;51730;56.950;24.126;2022-11-18T03:48:16;0.68;;;0.68;;
65145;SDS011;51730;56.950;24.126;2022-11-18T03:53:36;1.67;;;0.88;;
65145;SDS011;51730;56.950;24.126;2022-11-18T03:56:21;1.63;;;0.82;;
65145;SDS011;51730;56.950;24.126;2022-11-18T03:59:16;3.22;;;1.00;;
65145;SDS011;51730;56.950;24.126;2022-11-18T04:01:50;1.02;;;0.90;;
65145;SDS011;51730;56.950;24.126;2022-11-18T04:04:22;3.80;;;1.58;;
65145;SDS011;51730;56.950;24.126;2022-11-18T04:09:49;2.80;;;0.82;;
65145;SDS011;51730;56.950;24.126;2022-11-18T04:12:47;1.15;;;0.90;;
65145;SDS011;51730;56.950;24.126;2022-11-18T04:15:19;2.20;;;1.27;;
65145;SDS011;51730;56.950;24.126;2022-11-18T04:17:46;1.10;;;1.00;;
65145;SDS011;51730;56.950;24.126;2022-11-18T04:20:14;4.07;;;2.00;;
65145;SDS011;51730;56.950;24.126;2022-11-18T04:22:44;2.10;;;1.40;;
65145;SDS011;51730;56.950;24.126;2022-11-18T04:25:11;2.70;;;1.52;;
65145;SDS011;51730;56.950;24.126;2022-11-18T04:27:39;2.13;;;1.10;;
65145;SDS011;51730;56.950;24.126;2022-11-18T04:30:06;1.42;;;1.20;;
65145;SDS011;51730;56.950;24.126;2022-11-18T04:32:34;2.22;;;1.23;;
65145;SDS011;51730;56.950;24.126;2022-11-18T04:35:01;1.38;;;1.10;;
65145;SDS011;51730;56.950;24.126;2022-11-18T04:37:28;1.35;;;1.20;;
65145;SDS011;51730;56.950;24.126;2022-11-18T04:39:55;1.23;;;1.10;;
65145;SDS011;51730;56.950;24.126;2022-11-18T04:42:22;1.98;;;1.20;;
65145;SDS011;51730;56.950;24.126;2022-11-18T04:44:48;1.02;;;0.88;;
65145;SDS011;51730;56.950;24.126;2022-11-18T04:47:15;2.05;;;1.45;;
65145;SDS011;51730;56.950;24.126;2022-11-18T04:49:42;2.08;;;1.15;;
65145;SDS011;51730;56.950;24.126;2022-11-18T04:52:09;2.70;;;1.23;;
65145;SDS011;51730;56.950;24.126;2022-11-18T04:54:36;2.90;;;1.52;;
65145;SDS011;51730;56.950;24.126;2022-11-18T04:57:03;3.42;;;1.40;;
65145;SDS011;51730;56.950;24.126;2022-11-18T04:59:30;2.15;;;1.40;;
65145;SDS011;51730;56.950;24.126;2022-11-18T05:01:57;3.03;;;1.33;;
65145;SDS011;51730;56.950;24.126;2022-11-18T05:04:27;1.75;;;1.55;;
65145;SDS011;51730;56.950;24.126;2022-11-18T05:06:56;3.78;;;1.80;;
65145;SDS011;51730;56.950;24.126;2022-11-18T05:09:24;1.70;;;1.10;;
65145;SDS011;51730;56.950;24.126;2022-11-18T05:11:57;2.13;;;1.20;;
65145;SDS011;51730;56.950;24.126;2022-11-18T05:14:43;2.20;;;1.30;;
65145;SDS011;51730;56.950;24.126;2022-11-18T05:17:16;3.08;;;2.03;;
65145;SDS011;51730;56.950;24.126;2022-11-18T05:19:43;3.50;;;2.20;;
65145;SDS011;51730;56.950;24.126;2022-11-18T05:22:10;2.42;;;2.00;;
65145;SDS011;51730;56.950;24.126;2022-11-18T05:24:37;3.05;;;1.60;;
65145;SDS011;51730;56.950;24.126;2022-11-18T05:27:03;1.65;;;1.40;;
65145;SDS011;51730;56.950;24.126;2022-11-18T05:29:30;2.85;;;1.60;;
65145;SDS011;51730;56.950;24.126;2022-11-18T05:31:58;4.85;;;1.67;;
65145;SDS011;51730;56.950;24.126;2022-11-18T05:34:25;2.67;;;1.20;;
65145;SDS011;51730;56.950;24.126;2022-11-18T05:36:52;4.43;;;1.70;;
65145;SDS011;51730;56.950;24.126;2022-11-18T05:39:19;2.95;;;1.60;;
65145;SDS011;51730;56.950;24.126;2022-11-18T05:41:46;1.27;;;0.93;;
65145;SDS011;51730;56.950;24.126;2022-11-18T05:44:32;2.65;;;1.58;;
65145;SDS011;51730;56.950;24.126;2022-11-18T05:46:59;3.33;;;1.77;;
65145;SDS011;51730;56.950;24.126;2022-11-18T05:49:26;3.72;;;2.13;;
65145;SDS011;51730;56.950;24.126;2022-11-18T05:51:53;1.42;;;1.08;;
65145;SDS011;51730;56.950;24.126;2022-11-18T05:54:20;2.42;;;1.27;;
65145;SDS011;51730;56.950;24.126;2022-11-18T05:56:48;2.67;;;1.50;;
65145;SDS011;51730;56.950;24.126;2022-11-18T05:59:15;2.03;;;1.25;;
65145;SDS011;51730;56.950;24.126;2022-11-18T06:01:56;2.85;;;1.88;;
65145;SDS011;51730;56.950;24.126;2022-11-18T06:04:35;4.18;;;1.88;;
65145;SDS011;51730;56.950;24.126;2022-11-18T06:07:09;3.00;;;1.73;;
65145;SDS011;51730;56.950;24.126;2022-11-18T06:09:45;3.25;;;1.60;;
65145;SDS011;51730;56.950;24.126;2022-11-18T06:12:16;3.30;;;1.67;;
65145;SDS011;51730;56.950;24.126;2022-11-18T06:14:47;3.83;;;1.67;;
65145;SDS011;51730;56.950;24.126;2022-11-18T06:17:24;4.82;;;1.20;;
65145;SDS011;51730;56.950;24.126;2022-11-18T06:19:55;3.03;;;2.05;;
65145;SDS011;51730;56.950;24.126;2022-11-18T06:22:23;3.05;;;1.85;;
65145;SDS011;51730;56.950;24.126;2022-11-18T06:24:50;2.25;;;1.90;;
65145;SDS011;51730;56.950;24.126;2022-11-18T06:27:17;2.15;;;1.60;;
65145;SDS011;51730;56.950;24.126;2022-11-18T06:29:44;4.82;;;1.70;;
65145;SDS011;51730;56.950;24.126;2022-11-18T06:32:11;5.32;;;1.80;;
65145;SDS011;51730;56.950;24.126;2022-11-18T06:34:38;2.97;;;1.95;;
65145;SDS011;51730;56.950;24.126;2022-11-18T06:37:17;3.00;;;1.60;;
65145;SDS011;51730;56.950;24.126;2022-11-18T06:39:48;2.80;;;1.50;;
65145;SDS011;51730;56.950;24.126;2022-11-18T06:42:15;1.00;;;0.90;;
65145;SDS011;51730;56.950;24.126;2022-11-18T06:45:01;5.15;;;1.88;;
65145;SDS011;51730;56.950;24.126;2022-11-18T06:47:29;3.47;;;2.10;;
65145;SDS011;51730;56.950;24.126;2022-11-18T06:49:56;4.68;;;2.70;;
65145;SDS011;51730;56.950;24.126;2022-11-18T06:52:23;6.57;;;3.20;;
65145;SDS011;51730;56.950;24.126;2022-11-18T06:54:50;3.40;;;1.90;;
65145;SDS011;51730;56.950;24.126;2022-11-18T06:57:17;2.65;;;1.75;;
65145;SDS011;51730;56.950;24.126;2022-11-18T06:59:44;3.65;;;2.05;;
65145;SDS011;51730;56.950;24.126;2022-11-18T07:02:11;3.17;;;1.95;;
65145;SDS011;51730;56.950;24.126;2022-11-18T07:04:38;4.15;;;2.28;;
65145;SDS011;51730;56.950;24.126;2022-11-18T07:07:06;2.35;;;1.65;;
65145;SDS011;51730;56.950;24.126;2022-11-18T07:09:34;2.95;;;1.75;;
65145;SDS011;51730;56.950;24.126;2022-11-18T07:12:01;2.55;;;1.48;;
65145;SDS011;51730;56.950;24.126;2022-11-18T07:14:29;4.20;;;2.40;;
65145;SDS011;51730;56.950;24.126;2022-11-18T07:16:56;2.42;;;1.45;;
65145;SDS011;51730;56.950;24.126;2022-11-18T07:19:23;4.75;;;1.77;;
65145;SDS011;51730;56.950;24.126;2022-11-18T07:21:50;4.72;;;1.80;;
65145;SDS011;51730;56.950;24.126;2022-11-18T07:24:17;4.72;;;1.83;;
65145;SDS011;51730;56.950;24.126;2022-11-18T07:26:44;3.25;;;2.03;;
65145;SDS011;51730;56.950;24.126;2022-11-18T07:29:11;3.92;;;2.50;;
65145;SDS011;51730;56.950;24.126;2022-11-18T07:31:37;4.00;;;2.17;;
65145;SDS011;51730;56.950;24.126;2022-11-18T07:34:05;1.80;;;1.38;;
65145;SDS011;51730;56.950;24.126;2022-11-18T07:36:33;3.95;;;2.35;;
65145;SDS011;51730;56.950;24.126;2022-11-18T07:39:02;6.05;;;2.65;;
65145;SDS011;51730;56.950;24.126;2022-11-18T07:41:30;3.03;;;1.90;;
65145;SDS011;51730;56.950;24.126;2022-11-18T07:43:59;6.32;;;2.40;;
65145;SDS011;51730;56.950;24.126;2022-11-18T07:46:31;5.75;;;2.33;;
65145;SDS011;51730;56.950;24.126;2022-11-18T07:49:00;5.00;;;2.50;;
65145;SDS011;51730;56.950;24.126;2022-11-18T07:51:29;4.28;;;2.40;;
65145;SDS011;51730;56.950;24.126;2022-11-18T07:54:04;5.28;;;2.50;;
65145;SDS011;51730;56.950;24.126;2022-11-18T07:58:59;5.45;;;2.88;;
65145;SDS011;51730;56.950;24.126;2022-11-18T08:01:26;6.30;;;2.55;;
65145;SDS011;51730;56.950;24.126;2022-11-18T08:03:55;3.10;;;2.15;;
65145;SDS011;51730;56.950;24.126;2022-11-18T08:06:23;4.60;;;2.08;;
65145;SDS011;51730;56.950;24.126;2022-11-18T08:08:49;5.30;;;3.47;;
65145;SDS011;51730;56.950;24.126;2022-11-18T08:11:18;5.40;;;3.13;;
65145;SDS011;51730;56.950;24.126;2022-11-18T08:13:48;2.38;;;1.85;;
65145;SDS011;51730;56.950;24.126;2022-11-18T08:16:17;3.92;;;2.33;;
65145;SDS011;51730;56.950;24.126;2022-11-18T08:18:46;3.67;;;2.53;;
65145;SDS011;51730;56.950;24.126;2022-11-18T08:21:13;3.13;;;1.73;;
65145;SDS011;51730;56.950;24.126;2022-11-18T08:23:41;4.80;;;2.13;;
65145;SDS011;51730;56.950;24.126;2022-11-18T08:26:12;4.05;;;2.58;;
65145;SDS011;51730;56.950;24.126;2022-11-18T08:28:40;6.78;;;2.20;;
65145;SDS011;51730;56.950;24.126;2022-11-18T08:31:08;3.70;;;2.50;;
65145;SDS011;51730;56.950;24.126;2022-11-18T08:33:43;4.50;;;2.80;;
65145;SDS011;51730;56.950;24.126;2022-11-18T08:36:17;8.70;;;4.20;;
65145;SDS011;51730;56.950;24.126;2022-11-18T08:38:46;6.22;;;2.78;;
65145;SDS011;51730;56.950;24.126;2022-11-18T08:41:14;7.07;;;3.22;;
65145;SDS011;51730;56.950;24.126;2022-11-18T08:43:46;2.60;;;1.80;;
65145;SDS011;51730;56.950;24.126;2022-11-18T08:46:13;3.70;;;2.35;;
65145;SDS011;51730;56.950;24.126;2022-11-18T08:48:40;3.88;;;2.38;;
65145;SDS011;51730;56.950;24.126;2022-11-18T08:51:10;4.93;;;2.92;;
65145;SDS011;51730;56.950;24.126;2022-11-18T08:53:38;6.00;;;2.60;;
65145;SDS011;51730;56.950;24.126;2022-11-18T08:56:05;4.60;;;2.72;;
65145;SDS011;51730;56.950;24.126;2022-11-18T08:58:32;7.57;;;3.42;;
65145;SDS011;51730;56.950;24.126;2022-11-18T09:01:03;4.55;;;1.95;;
65145;SDS011;51730;56.950;24.126;2022-11-18T09:03:31;3.47;;;2.38;;
65145;SDS011;51730;56.950;24.126;2022-11-18T09:06:09;2.75;;;2.03;;
65145;SDS011;51730;56.950;24.126;2022-11-18T09:08:38;5.70;;;3.70;;
65145;SDS011;51730;56.950;24.126;2022-11-18T09:11:06;4.10;;;2.20;;
65145;SDS011;51730;56.950;24.126;2022-11-18T09:13:38;6.50;;;3.50;;
65145;SDS011;51730;56.950;24.126;2022-11-18T09:16:27;8.30;;;4.20;;
65145;SDS011;51730;56.950;24.126;2022-11-18T09:18:55;3.20;;;2.10;;
65145;SDS011;51730;56.950;24.126;2022-11-18T09:21:23;4.38;;;3.00;;
65145;SDS011;51730;56.950;24.126;2022-11-18T09:23:51;5.53;;;3.20;;
65145;SDS011;51730;56.950;24.126;2022-11-18T09:26:19;7.85;;;4.13;;
65145;SDS011;51730;56.950;24.126;2022-11-18T09:28:48;5.75;;;2.90;;
65145;SDS011;51730;56.950;24.126;2022-11-18T09:31:18;4.55;;;2.95;;
65145;SDS011;51730;56.950;24.126;2022-11-18T09:33:44;8.05;;;4.20;;
65145;SDS011;51730;56.950;24.126;2022-11-18T09:38:48;9.88;;;4.43;;
65145;SDS011;51730;56.950;24.126;2022-11-18T09:47:09;6.32;;;4.05;;
65145;SDS011;51730;56.950;24.126;2022-11-18T09:50:10;6.15;;;3.53;;
65145;SDS011;51730;56.950;24.126;2022-11-18T09:53:07;4.95;;;3.00;;
65145;SDS011;51730;56.950;24.126;2022-11-18T09:55:47;4.20;;;2.90;;
65145;SDS011;51730;56.950;24.126;2022-11-18T09:58:17;4.55;;;2.88;;
65145;SDS011;51730;56.950;24.126;2022-11-18T10:00:50;5.97;;;3.30;;
65145;SDS011;51730;56.950;24.126;2022-11-18T10:03:30;5.68;;;2.63;;
65145;SDS011;51730;56.950;24.126;2022-11-18T10:08:46;4.80;;;2.53;;
65145;SDS011;51730;56.950;24.126;2022-11-18T10:11:34;6.82;;;3.53;;
65145;SDS011;51730;56.950;24.126;2022-11-18T10:25:16;8.27;;;4.05;;
65145;SDS011;51730;56.950;24.126;2022-11-18T10:27:44;6.95;;;3.70;;
65145;SDS011;51730;56.950;24.126;2022-11-18T10:30:14;5.55;;;3.55;;
65145;SDS011;51730;56.950;24.126;2022-11-18T10:32:59;5.20;;;3.05;;
65145;SDS011;51730;56.950;24.126;2022-11-18T10:35:32;5.95;;;3.10;;
65145;SDS011;51730;56.950;24.126;2022-11-18T10:43:41;4.95;;;2.35;;
65145;SDS011;51730;56.950;24.126;2022-11-18T10:46:17;6.55;;;3.03;;
65145;SDS011;51730;56.950;24.126;2022-11-18T10:48:44;4.70;;;2.90;;
65145;SDS011;51730;56.950;24.126;2022-11-18T10:51:21;4.85;;;2.35;;
65145;SDS011;51730;56.950;24.126;2022-11-18T10:53:49;5.82;;;2.53;;
65145;SDS011;51730;56.950;24.126;2022-11-18T10:56:16;5.43;;;2.80;;
65145;SDS011;51730;56.950;24.126;2022-11-18T10:58:47;5.43;;;3.33;;
65145;SDS011;51730;56.950;24.126;2022-11-18T11:01:19;7.53;;;2.97;;
65145;SDS011;51730;56.950;24.126;2022-11-18T11:04:02;3.40;;;2.53;;
65145;SDS011;51730;56.950;24.126;2022-11-18T11:06:42;6.07;;;3.63;;
65145;SDS011;51730;56.950;24.126;2022-11-18T11:11:41;7.30;;;3.30;;
65145;SDS011;51730;56.950;24.126;2022-11-18T11:14:25;3.00;;;1.88;;
65145;SDS011;51730;56.950;24.126;2022-11-18T11:17:09;2.22;;;1.73;;
65145;SDS011;51730;56.950;24.126;2022-11-18T11:19:44;2.88;;;2.22;;
65145;SDS011;51730;56.950;24.126;2022-11-18T11:22:38;3.63;;;1.52;;
65145;SDS011;51730;56.950;24.126;2022-11-18T11:25:10;3.22;;;1.73;;
65145;SDS011;51730;56.950;24.126;2022-11-18T11:27:53;5.47;;;2.78;;
65145;SDS011;51730;56.950;24.126;2022-11-18T11:30:42;4.07;;;2.40;;
65145;SDS011;51730;56.950;24.126;2022-11-18T11:33:18;5.07;;;1.92;;
65145;SDS011;51730;56.950;24.126;2022-11-18T11:36:15;4.57;;;2.65;;
65145;SDS011;51730;56.950;24.126;2022-11-18T11:39:48;3.78;;;2.10;;
65145;SDS011;51730;56.950;24.126;2022-11-18T11:42:21;3.20;;;2.10;;
65145;SDS011;51730;56.950;24.126;2022-11-18T11:44:58;2.83;;;1.65;;
65145;SDS011;51730;56.950;24.126;2022-11-18T11:47:58;2.63;;;1.75;;
65145;SDS011;51730;56.950;24.126;2022-11-18T12:04:13;4.57;;;2.13;;
65145;SDS011;51730;56.950;24.126;2022-11-18T12:06:46;4.65;;;2.17;;
65145;SDS011;51730;56.950;24.126;2022-11-18T12:11:49;3.00;;;2.05;;
65145;SDS011;51730;56.950;24.126;2022-11-18T12:19:44;3.53;;;2.17;;
65145;SDS011;51730;56.950;24.126;2022-11-18T12:22:11;5.90;;;2.50;;
65145;SDS011;51730;56.950;24.126;2022-11-18T12:24:38;11.07;;;5.65;;
65145;SDS011;51730;56.950;24.126;2022-11-18T12:29:58;5.25;;;3.20;;
65145;SDS011;51730;56.950;24.126;2022-11-18T12:40:06;7.40;;;3.00;;
65145;SDS011;51730;56.950;24.126;2022-11-18T12:42:39;5.47;;;2.58;;
65145;SDS011;51730;56.950;24.126;2022-11-18T12:48:44;4.65;;;2.97;;
65145;SDS011;51730;56.950;24.126;2022-11-18T12:56:22;6.85;;;3.33;;
65145;SDS011;51730;56.950;24.126;2022-11-18T12:58:53;8.35;;;3.72;;
65145;SDS011;51730;56.950;24.126;2022-11-18T13:01:25;3.22;;;1.98;;
65145;SDS011;51730;56.950;24.126;2022-11-18T13:04:07;3.40;;;2.55;;
65145;SDS011;51730;56.950;24.126;2022-11-18T13:06:40;3.08;;;1.88;;
65145;SDS011;51730;56.950;24.126;2022-11-18T13:09:16;6.85;;;3.35;;
65145;SDS011;51730;56.950;24.126;2022-11-18T13:11:51;5.32;;;2.78;;
65145;SDS011;51730;56.950;24.126;2022-11-18T13:14:27;5.30;;;3.08;;
65145;SDS011;51730;56.950;24.126;2022-11-18T13:17:29;7.97;;;3.00;;
65145;SDS011;51730;56.950;24.126;2022-11-18T13:25:54;3.90;;;2.97;;
65145;SDS011;51730;56.950;24.126;2022-11-18T13:34:00;5.68;;;3.25;;
65145;SDS011;51730;56.950;24.126;2022-11-18T13:36:47;4.45;;;2.88;;
65145;SDS011;51730;56.950;24.126;2022-11-18T13:41:59;6.88;;;3.47;;
65145;SDS011;51730;56.950;24.126;2022-11-18T13:44:31;2.60;;;1.80;;
65145;SDS011;51730;56.950;24.126;2022-11-18T13:47:22;3.13;;;1.80;;
65145;SDS011;51730;56.950;24.126;2022-11-18T13:52:57;6.63;;;2.83;;
65145;SDS011;51730;56.950;24.126;2022-11-18T13:55:33;3.92;;;2.58;;
65145;SDS011;51730;56.950;24.126;2022-11-18T13:58:19;6.82;;;3.58;;
65145;SDS011;51730;56.950;24.126;2022-11-18T14:00:55;7.07;;;3.22;;
65145;SDS011;51730;56.950;24.126;2022-11-18T14:03:31;6.43;;;2.63;;
65145;SDS011;51730;56.950;24.126;2022-11-18T14:06:06;6.18;;;2.92;;
65145;SDS011;51730;56.950;24.126;2022-11-18T14:08:34;7.95;;;4.28;;
65145;SDS011;51730;56.950;24.126;2022-11-18T14:11:03;8.95;;;4.40;;
65145;SDS011;51730;56.950;24.126;2022-11-18T14:13:32;9.32;;;3.13;;
65145;SDS011;51730;56.950;24.126;2022-11-18T14:16:03;4.78;;;3.05;;
65145;SDS011;51730;56.950;24.126;2022-11-18T14:18:49;6.50;;;3.58;;
65145;SDS011;51730;56.950;24.126;2022-11-18T14:21:26;4.60;;;3.13;;
65145;SDS011;51730;56.950;24.126;2022-11-18T14:23:55;9.30;;;3.22;;
65145;SDS011;51730;56.950;24.126;2022-11-18T14:26:30;7.60;;;3.47;;
65145;SDS011;51730;56.950;24.126;2022-11-18T14:29:16;6.07;;;3.83;;
65145;SDS011;51730;56.950;24.126;2022-11-18T14:34:58;10.00;;;4.85;;
65145;SDS011;51730;56.950;24.126;2022-11-18T14:37:25;9.50;;;4.35;;
65145;SDS011;51730;56.950;24.126;2022-11-18T14:39:53;7.47;;;4.07;;
65145;SDS011;51730;56.950;24.126;2022-11-18T14:42:21;9.27;;;4.43;;
65145;SDS011;51730;56.950;24.126;2022-11-18T14:44:49;8.63;;;4.40;;
65145;SDS011;51730;56.950;24.126;2022-11-18T14:47:26;15.68;;;4.85;;
65145;SDS011;51730;56.950;24.126;2022-11-18T14:49:55;4.50;;;2.72;;
65145;SDS011;51730;56.950;24.126;2022-11-18T14:52:22;9.10;;;4.15;;
65145;SDS011;51730;56.950;24.126;2022-11-18T14:54:49;5.45;;;2.83;;
65145;SDS011;51730;56.950;24.126;2022-11-18T14:57:17;8.38;;;4.43;;
65145;SDS011;51730;56.950;24.126;2022-11-18T14:59:44;9.02;;;4.32;;
65145;SDS011;51730;56.950;24.126;2022-11-18T15:02:15;7.25;;;3.63;;
65145;SDS011;51730;56.950;24.126;2022-11-18T15:04:43;5.90;;;3.40;;
65145;SDS011;51730;56.950;24.126;2022-11-18T15:07:13;2.95;;;1.95;;
65145;SDS011;51730;56.950;24.126;2022-11-18T15:09:48;7.05;;;3.78;;
65145;SDS011;51730;56.950;24.126;2022-11-18T15:12:16;6.82;;;3.80;;
65145;SDS011;51730;56.950;24.126;2022-11-18T15:14:43;4.40;;;3.03;;
65145;SDS011;51730;56.950;24.126;2022-11-18T15:17:09;4.53;;;2.88;;
65145;SDS011;51730;56.950;24.126;2022-11-18T15:19:37;4.22;;;2.85;;
65145;SDS011;51730;56.950;24.126;2022-11-18T15:22:06;7.25;;;4.30;;
65145;SDS011;51730;56.950;24.126;2022-11-18T15:24:33;6.88;;;4.03;;
65145;SDS011;51730;56.950;24.126;2022-11-18T15:27:00;5.32;;;3.28;;
65145;SDS011;51730;56.950;24.126;2022-11-18T15:29:30;9.18;;;4.80;;
65145;SDS011;51730;56.950;24.126;2022-11-18T15:31:58;12.05;;;5.38;;
65145;SDS011;51730;56.950;24.126;2022-11-18T15:34:25;13.40;;;5.88;;
65145;SDS011;51730;56.950;24.126;2022-11-18T15:36:52;8.75;;;3.78;;
65145;SDS011;51730;56.950;24.126;2022-11-18T15:39:19;5.03;;;3.05;;
65145;SDS011;51730;56.950;24.126;2022-11-18T15:41:46;5.65;;;2.97;;
65145;SDS011;51730;56.950;24.126;2022-11-18T15:44:13;4.40;;;2.50;;
65145;SDS011;51730;56.950;24.126;2022-11-18T15:46:39;9.18;;;4.00;;
65145;SDS011;51730;56.950;24.126;2022-11-18T15:49:09;7.03;;;3.92;;
65145;SDS011;51730;56.950;24.126;2022-11-18T15:51:39;7.07;;;3.33;;
65145;SDS011;51730;56.950;24.126;2022-11-18T15:54:06;5.22;;;3.05;;
65145;SDS011;51730;56.950;24.126;2022-11-18T15:56:33;11.82;;;4.47;;
65145;SDS011;51730;56.950;24.126;2022-11-18T15:59:01;9.52;;;4.78;;
65145;SDS011;51730;56.950;24.126;2022-11-18T16:01:35;8.20;;;4.50;;
65145;SDS011;51730;56.950;24.126;2022-11-18T16:04:05;8.00;;;3.45;;
65145;SDS011;51730;56.950;24.126;2022-11-18T16:06:32;6.35;;;3.60;;
65145;SDS011;51730;56.950;24.126;2022-11-18T16:09:00;18.15;;;7.28;;
65145;SDS011;51730;56.950;24.126;2022-11-18T16:11:27;8.00;;;4.47;;
65145;SDS011;51730;56.950;24.126;2022-11-18T16:14:15;11.25;;;2.80;;
65145;SDS011;51730;56.950;24.126;2022-11-18T16:16:44;6.53;;;3.70;;
65145;SDS011;51730;56.950;24.126;2022-11-18T16:19:13;5.43;;;2.90;;
65145;SDS011;51730;56.950;24.126;2022-11-18T16:21:43;5.75;;;2.72;;
65145;SDS011;51730;56.950;24.126;2022-11-18T16:24:13;4.53;;;2.33;;
65145;SDS011;51730;56.950;24.126;2022-11-18T16:26:45;3.05;;;2.53;;
65145;SDS011;51730;56.950;24.126;2022-11-18T16:29:12;5.85;;;2.90;;
65145;SDS011;51730;56.950;24.126;2022-11-18T16:31:43;7.30;;;3.60;;
65145;SDS011;51730;56.950;24.126;2022-11-18T16:34:17;7.45;;;3.67;;
65145;SDS011;51730;56.950;24.126;2022-11-18T16:36:55;7.65;;;3.88;;
65145;SDS011;51730;56.950;24.126;2022-11-18T16:39:25;4.82;;;2.80;;
65145;SDS011;51730;56.950;24.126;2022-11-18T16:41:54;7.43;;;3.15;;
65145;SDS011;51730;56.950;24.126;2022-11-18T16:44:32;6.32;;;2.55;;
65145;SDS011;51730;56.950;24.126;2022-11-18T16:47:00;6.45;;;3.08;;
65145;SDS011;51730;56.950;24.126;2022-11-18T16:49:27;6.88;;;4.18;;
65145;SDS011;51730;56.950;24.126;2022-11-18T16:51:54;2.38;;;1.88;;
65145;SDS011;51730;56.950;24.126;2022-11-18T16:54:23;6.50;;;2.40;;
65145;SDS011;51730;56.950;24.126;2022-11-18T16:56:51;2.80;;;2.17;;
65145;SDS011;51730;56.950;24.126;2022-11-18T16:59:24;4.47;;;2.72;;
65145;SDS011;51730;56.950;24.126;2022-11-18T17:01:53;5.40;;;2.92;;
65145;SDS011;51730;56.950;24.126;2022-11-18T17:04:22;5.90;;;2.65;;
65145;SDS011;51730;56.950;24.126;2022-11-18T17:06:50;6.03;;;3.40;;
65145;SDS011;51730;56.950;24.126;2022-11-18T17:09:19;5.90;;;2.70;;